Garland City, Arkansas
Current Conditions -  °F | °C
As of 1:53 AM on Tuesday 21 Oct 2014 (Local Time) from KTXK Reporting Station
Clear Clear  
Wind Chill: 59°   Ceiling: Unl
Heat Index: 59°   Visibility: 10mi
Dew Point: 55°   Wind: 0mph
Humidity: 87%   Direction: NA
Pressure: 30.05"   Gusts: NA
Location:  33.35°N, 93.75°W
Report Text: KTXK 210653Z AUTO 00000KT 10SM CLR 15/13 A3005 RMK AO2 SLP170 T01500128
Loading
Personal Weather Stations






























Interactive Weather Map New forecast layout! Learn more

10-Day Weather Forecast

Advertisements
Track Severe Weather on mobile